sensor_id;sensor_type;location;lat;lon;timestamp;pressure;altitude;pressure_sealevel;temperature;humidity
49729;BME280;66333;49.798;10.968;2023-08-31T00:00:10;97475.91;;;19.59;54.77
49729;BME280;66333;49.798;10.968;2023-08-31T00:02:39;97471.03;;;19.56;54.85
49729;BME280;66333;49.798;10.968;2023-08-31T00:05:07;97476.50;;;19.61;54.60
49729;BME280;66333;49.798;10.968;2023-08-31T00:07:33;97474.53;;;19.68;54.51
49729;BME280;66333;49.798;10.968;2023-08-31T00:10:00;97478.13;;;19.62;54.62
49729;BME280;66333;49.798;10.968;2023-08-31T00:12:31;97481.59;;;19.63;54.73
49729;BME280;66333;49.798;10.968;2023-08-31T00:14:57;97483.78;;;19.66;54.64
49729;BME280;66333;49.798;10.968;2023-08-31T00:17:24;97487.38;;;19.71;54.32
49729;BME280;66333;49.798;10.968;2023-08-31T00:19:52;97485.28;;;19.73;54.32
49729;BME280;66333;49.798;10.968;2023-08-31T00:22:19;97474.19;;;19.65;54.63
49729;BME280;66333;49.798;10.968;2023-08-31T00:24:46;97479.81;;;19.57;54.61
49729;BME280;66333;49.798;10.968;2023-08-31T00:27:12;97461.44;;;19.55;54.79
49729;BME280;66333;49.798;10.968;2023-08-31T00:29:40;97463.38;;;19.48;54.88
49729;BME280;66333;49.798;10.968;2023-08-31T00:32:08;97463.72;;;19.40;55.24
49729;BME280;66333;49.798;10.968;2023-08-31T00:34:35;97460.72;;;19.36;55.26
49729;BME280;66333;49.798;10.968;2023-08-31T00:37:04;97468.59;;;19.43;55.26
49729;BME280;66333;49.798;10.968;2023-08-31T00:39:31;97461.56;;;19.49;54.95
49729;BME280;66333;49.798;10.968;2023-08-31T00:41:58;97459.81;;;19.54;54.74
49729;BME280;66333;49.798;10.968;2023-08-31T00:44:25;97465.13;;;19.54;54.77
49729;BME280;66333;49.798;10.968;2023-08-31T00:46:52;97472.84;;;19.44;55.05
49729;BME280;66333;49.798;10.968;2023-08-31T00:49:19;97478.97;;;19.33;55.33
49729;BME280;66333;49.798;10.968;2023-08-31T00:51:46;97482.19;;;19.35;55.27
49729;BME280;66333;49.798;10.968;2023-08-31T00:54:15;97478.63;;;19.41;55.07
49729;BME280;66333;49.798;10.968;2023-08-31T00:56:42;97478.31;;;19.49;54.87
49729;BME280;66333;49.798;10.968;2023-08-31T00:59:09;97482.09;;;19.41;54.95
49729;BME280;66333;49.798;10.968;2023-08-31T01:01:37;97491.91;;;19.41;55.00
49729;BME280;66333;49.798;10.968;2023-08-31T01:04:16;97500.22;;;19.33;55.16
49729;BME280;66333;49.798;10.968;2023-08-31T01:06:53;97495.72;;;19.45;54.86
49729;BME280;66333;49.798;10.968;2023-08-31T01:09:24;97495.47;;;19.35;55.31
49729;BME280;66333;49.798;10.968;2023-08-31T01:11:57;97499.75;;;19.36;55.13
49729;BME280;66333;49.798;10.968;2023-08-31T01:14:32;97496.53;;;19.34;55.04
49729;BME280;66333;49.798;10.968;2023-08-31T01:16:59;97486.59;;;19.41;55.00
49729;BME280;66333;49.798;10.968;2023-08-31T01:19:40;97497.91;;;19.48;54.68
49729;BME280;66333;49.798;10.968;2023-08-31T01:22:11;97495.50;;;19.47;54.60
49729;BME280;66333;49.798;10.968;2023-08-31T01:24:41;97508.69;;;19.53;54.53
49729;BME280;66333;49.798;10.968;2023-08-31T01:27:07;97518.16;;;19.49;54.49
49729;BME280;66333;49.798;10.968;2023-08-31T01:29:34;97521.16;;;19.41;54.80
49729;BME280;66333;49.798;10.968;2023-08-31T01:32:05;97525.84;;;19.39;54.96
49729;BME280;66333;49.798;10.968;2023-08-31T01:34:32;97525.75;;;19.45;54.63
49729;BME280;66333;49.798;10.968;2023-08-31T01:37:00;97525.53;;;19.47;54.71
49729;BME280;66333;49.798;10.968;2023-08-31T01:39:34;97525.66;;;19.40;54.61
49729;BME280;66333;49.798;10.968;2023-08-31T01:42:05;97514.97;;;19.29;55.13
49729;BME280;66333;49.798;10.968;2023-08-31T01:44:34;97515.22;;;19.39;54.84
49729;BME280;66333;49.798;10.968;2023-08-31T01:47:03;97510.63;;;19.46;54.59
49729;BME280;66333;49.798;10.968;2023-08-31T01:49:35;97527.50;;;19.40;54.89
49729;BME280;66333;49.798;10.968;2023-08-31T01:52:02;97520.53;;;19.39;54.79
49729;BME280;66333;49.798;10.968;2023-08-31T01:54:29;97521.72;;;19.43;54.63
49729;BME280;66333;49.798;10.968;2023-08-31T01:56:55;97519.66;;;19.45;54.67
49729;BME280;66333;49.798;10.968;2023-08-31T01:59:23;97509.00;;;19.45;54.54
49729;BME280;66333;49.798;10.968;2023-08-31T02:01:50;97519.19;;;19.48;54.42
49729;BME280;66333;49.798;10.968;2023-08-31T02:04:16;97523.91;;;19.46;54.70
49729;BME280;66333;49.798;10.968;2023-08-31T02:06:42;97527.03;;;19.43;54.72
49729;BME280;66333;49.798;10.968;2023-08-31T02:09:09;97523.81;;;19.41;54.67
49729;BME280;66333;49.798;10.968;2023-08-31T02:11:35;97521.72;;;19.43;54.50
49729;BME280;66333;49.798;10.968;2023-08-31T02:14:03;97533.97;;;19.44;54.50
49729;BME280;66333;49.798;10.968;2023-08-31T02:16:31;97530.38;;;19.38;54.50
49729;BME280;66333;49.798;10.968;2023-08-31T02:18:58;97527.94;;;19.37;54.59
49729;BME280;66333;49.798;10.968;2023-08-31T02:21:25;97534.63;;;19.39;54.75
49729;BME280;66333;49.798;10.968;2023-08-31T02:23:51;97529.28;;;19.28;54.96
49729;BME280;66333;49.798;10.968;2023-08-31T02:26:18;97539.66;;;19.17;55.27
49729;BME280;66333;49.798;10.968;2023-08-31T02:28:44;97540.66;;;19.35;54.67
49729;BME280;66333;49.798;10.968;2023-08-31T02:31:10;97534.88;;;19.38;54.63
49729;BME280;66333;49.798;10.968;2023-08-31T02:33:38;97541.78;;;19.39;54.39
49729;BME280;66333;49.798;10.968;2023-08-31T02:36:05;97542.25;;;19.36;54.58
49729;BME280;66333;49.798;10.968;2023-08-31T02:38:31;97534.28;;;19.36;54.45
49729;BME280;66333;49.798;10.968;2023-08-31T02:40:58;97535.91;;;19.37;54.37
49729;BME280;66333;49.798;10.968;2023-08-31T02:43:24;97536.59;;;19.32;54.61
49729;BME280;66333;49.798;10.968;2023-08-31T02:45:59;97539.84;;;19.34;54.42
49729;BME280;66333;49.798;10.968;2023-08-31T02:48:25;97536.59;;;19.32;54.47
49729;BME280;66333;49.798;10.968;2023-08-31T02:50:54;97530.47;;;19.32;54.61
49729;BME280;66333;49.798;10.968;2023-08-31T02:53:21;97532.53;;;19.30;54.48
49729;BME280;66333;49.798;10.968;2023-08-31T02:55:47;97528.84;;;19.31;54.50
49729;BME280;66333;49.798;10.968;2023-08-31T02:58:15;97533.25;;;19.37;54.29
49729;BME280;66333;49.798;10.968;2023-08-31T03:00:42;97530.00;;;19.35;54.41
49729;BME280;66333;49.798;10.968;2023-08-31T03:03:11;97534.16;;;19.31;54.33
49729;BME280;66333;49.798;10.968;2023-08-31T03:05:37;97528.84;;;19.31;54.48
49729;BME280;66333;49.798;10.968;2023-08-31T03:08:05;97536.22;;;19.29;54.46
49729;BME280;66333;49.798;10.968;2023-08-31T03:10:31;97530.09;;;19.28;54.43
49729;BME280;66333;49.798;10.968;2023-08-31T03:12:58;97536.22;;;19.29;54.32
49729;BME280;66333;49.798;10.968;2023-08-31T03:15:24;97528.50;;;19.27;54.45
49729;BME280;66333;49.798;10.968;2023-08-31T03:17:51;97534.84;;;19.26;54.40
49729;BME280;66333;49.798;10.968;2023-08-31T03:20:17;97541.53;;;19.29;54.39
49729;BME280;66333;49.798;10.968;2023-08-31T03:22:44;97544.19;;;19.29;54.44
49729;BME280;66333;49.798;10.968;2023-08-31T03:25:12;97543.63;;;19.27;54.39
49729;BME280;66333;49.798;10.968;2023-08-31T03:27:38;97539.47;;;19.31;54.38
49729;BME280;66333;49.798;10.968;2023-08-31T03:30:05;97544.78;;;19.31;54.31
49729;BME280;66333;49.798;10.968;2023-08-31T03:32:32;97552.97;;;19.29;54.29
49729;BME280;66333;49.798;10.968;2023-08-31T03:34:59;97554.25;;;19.27;54.41
49729;BME280;66333;49.798;10.968;2023-08-31T03:37:25;97549.38;;;19.24;54.43
49729;BME280;66333;49.798;10.968;2023-08-31T03:39:51;97565.31;;;19.24;54.39
49729;BME280;66333;49.798;10.968;2023-08-31T03:42:19;97565.91;;;19.26;54.38
49729;BME280;66333;49.798;10.968;2023-08-31T03:44:46;97566.13;;;19.24;54.33
49729;BME280;66333;49.798;10.968;2023-08-31T03:47:12;97570.53;;;19.30;54.21
49729;BME280;66333;49.798;10.968;2023-08-31T03:49:38;97566.94;;;19.25;54.31
49729;BME280;66333;49.798;10.968;2023-08-31T03:52:05;97577.34;;;19.26;54.24
49729;BME280;66333;49.798;10.968;2023-08-31T03:54:31;97580.00;;;19.26;54.37
49729;BME280;66333;49.798;10.968;2023-08-31T03:56:58;97576.59;;;19.19;54.37
49729;BME280;66333;49.798;10.968;2023-08-31T03:59:26;97585.38;;;19.20;54.38
49729;BME280;66333;49.798;10.968;2023-08-31T04:01:52;97581.25;;;19.24;54.32
49729;BME280;66333;49.798;10.968;2023-08-31T04:04:18;97582.41;;;19.28;54.17
49729;BME280;66333;49.798;10.968;2023-08-31T04:06:45;97581.69;;;19.21;54.29
49729;BME280;66333;49.798;10.968;2023-08-31T04:09:11;97588.19;;;19.25;54.32
49729;BME280;66333;49.798;10.968;2023-08-31T04:11:38;97590.25;;;19.23;54.28
49729;BME280;66333;49.798;10.968;2023-08-31T04:14:04;97602.50;;;19.24;54.34
49729;BME280;66333;49.798;10.968;2023-08-31T04:16:32;97600.06;;;19.22;54.51
49729;BME280;66333;49.798;10.968;2023-08-31T04:18:58;97606.19;;;19.23;54.33
49729;BME280;66333;49.798;10.968;2023-08-31T04:21:25;97611.50;;;19.23;54.46
49729;BME280;66333;49.798;10.968;2023-08-31T04:23:51;97622.56;;;19.20;54.44
49729;BME280;66333;49.798;10.968;2023-08-31T04:26:18;97627.44;;;19.23;54.34
49729;BME280;66333;49.798;10.968;2023-08-31T04:28:45;97616.81;;;19.23;54.33
49729;BME280;66333;49.798;10.968;2023-08-31T04:31:12;97626.63;;;19.22;54.50
49729;BME280;66333;49.798;10.968;2023-08-31T04:33:39;97627.88;;;19.20;54.37
49729;BME280;66333;49.798;10.968;2023-08-31T04:36:06;97623.84;;;19.17;54.29
49729;BME280;66333;49.798;10.968;2023-08-31T04:38:34;97629.97;;;19.17;54.39
49729;BME280;66333;49.798;10.968;2023-08-31T04:41:01;97637.13;;;19.17;54.37
49729;BME280;66333;49.798;10.968;2023-08-31T04:43:28;97638.50;;;19.20;54.50
49729;BME280;66333;49.798;10.968;2023-08-31T04:45:55;97633.66;;;19.16;54.46
49729;BME280;66333;49.798;10.968;2023-08-31T04:48:22;97636.91;;;19.19;54.52
49729;BME280;66333;49.798;10.968;2023-08-31T04:50:49;97644.84;;;19.19;54.31
49729;BME280;66333;49.798;10.968;2023-08-31T04:53:16;97639.03;;;19.10;54.52
49729;BME280;66333;49.798;10.968;2023-08-31T04:55:42;97636.59;;;19.08;54.62
49729;BME280;66333;49.798;10.968;2023-08-31T04:58:09;97646.78;;;19.11;54.51
49729;BME280;66333;49.798;10.968;2023-08-31T05:00:35;97650.00;;;19.13;54.53
49729;BME280;66333;49.798;10.968;2023-08-31T05:03:03;97655.31;;;19.13;54.41
49729;BME280;66333;49.798;10.968;2023-08-31T05:05:30;97658.94;;;19.19;54.38
49729;BME280;66333;49.798;10.968;2023-08-31T05:07:58;97665.06;;;19.20;54.44
49729;BME280;66333;49.798;10.968;2023-08-31T05:10:25;97662.28;;;19.14;54.50
49729;BME280;66333;49.798;10.968;2023-08-31T05:12:51;97671.06;;;19.15;54.41
49729;BME280;66333;49.798;10.968;2023-08-31T05:15:18;97664.72;;;19.16;54.34
49729;BME280;66333;49.798;10.968;2023-08-31T05:17:44;97667.16;;;19.17;54.34
49729;BME280;66333;49.798;10.968;2023-08-31T05:20:11;97672.00;;;19.21;54.15
49729;BME280;66333;49.798;10.968;2023-08-31T05:22:37;97676.28;;;19.22;54.35
49729;BME280;66333;49.798;10.968;2023-08-31T05:25:06;97682.28;;;19.17;54.29
49729;BME280;66333;49.798;10.968;2023-08-31T05:27:33;97676.97;;;19.17;54.34
49729;BME280;66333;49.798;10.968;2023-08-31T05:29:59;97683.09;;;19.17;54.34
49729;BME280;66333;49.798;10.968;2023-08-31T05:32:28;97684.69;;;19.19;54.22
49729;BME280;66333;49.798;10.968;2023-08-31T05:34:54;97685.50;;;19.19;54.24
49729;BME280;66333;49.798;10.968;2023-08-31T05:37:21;97687.34;;;19.19;54.09
49729;BME280;66333;49.798;10.968;2023-08-31T05:39:48;97691.19;;;19.23;54.09
49729;BME280;66333;49.798;10.968;2023-08-31T05:42:16;97697.69;;;19.27;54.06
49729;BME280;66333;49.798;10.968;2023-08-31T05:44:43;97695.31;;;19.19;54.21
49729;BME280;66333;49.798;10.968;2023-08-31T05:47:09;97693.94;;;19.16;54.23
49729;BME280;66333;49.798;10.968;2023-08-31T05:49:36;97697.97;;;19.19;54.18
49729;BME280;66333;49.798;10.968;2023-08-31T05:52:02;97692.09;;;19.16;54.18
49729;BME280;66333;49.798;10.968;2023-08-31T05:54:29;97701.50;;;19.12;54.28
49729;BME280;66333;49.798;10.968;2023-08-31T05:56:56;97704.97;;;19.13;54.45
49729;BME280;66333;49.798;10.968;2023-08-31T05:59:24;97702.13;;;19.14;54.34
49729;BME280;66333;49.798;10.968;2023-08-31T06:01:50;97704.41;;;19.11;54.27
49729;BME280;66333;49.798;10.968;2023-08-31T06:04:17;97705.66;;;19.08;54.35
49729;BME280;66333;49.798;10.968;2023-08-31T06:06:43;97712.53;;;19.16;54.24
49729;BME280;66333;49.798;10.968;2023-08-31T06:09:10;97711.31;;;19.12;54.35
49729;BME280;66333;49.798;10.968;2023-08-31T06:11:36;97707.28;;;19.09;54.29
49729;BME280;66333;49.798;10.968;2023-08-31T06:14:04;97710.16;;;19.08;54.49
49729;BME280;66333;49.798;10.968;2023-08-31T06:16:32;97712.13;;;19.12;54.36
49729;BME280;66333;49.798;10.968;2023-08-31T06:18:58;97712.75;;;19.14;54.25
49729;BME280;66333;49.798;10.968;2023-08-31T06:21:25;97709.66;;;19.17;54.27
49729;BME280;66333;49.798;10.968;2023-08-31T06:23:53;97719.53;;;19.10;54.32
49729;BME280;66333;49.798;10.968;2023-08-31T06:26:31;97717.44;;;19.12;54.19
49729;BME280;66333;49.798;10.968;2023-08-31T06:28:58;97718.34;;;19.06;54.50
49729;BME280;66333;49.798;10.968;2023-08-31T06:31:25;97721.72;;;19.13;54.24
49729;BME280;66333;49.798;10.968;2023-08-31T06:33:52;97720.09;;;19.12;54.42
49729;BME280;66333;49.798;10.968;2023-08-31T06:36:19;97715.03;;;19.11;54.31
49729;BME280;66333;49.798;10.968;2023-08-31T06:38:45;97711.25;;;19.19;54.05
49729;BME280;66333;49.798;10.968;2023-08-31T06:41:12;97717.91;;;19.09;54.39
49729;BME280;66333;49.798;10.968;2023-08-31T06:43:38;97718.19;;;19.20;54.24
49729;BME280;66333;49.798;10.968;2023-08-31T06:46:05;97721.88;;;19.19;54.29
49729;BME280;66333;49.798;10.968;2023-08-31T06:48:31;97724.53;;;19.19;54.29
49729;BME280;66333;49.798;10.968;2023-08-31T06:50:59;97728.25;;;19.17;54.27
49729;BME280;66333;49.798;10.968;2023-08-31T06:53:28;97734.13;;;19.20;54.28
49729;BME280;66333;49.798;10.968;2023-08-31T06:55:56;97736.66;;;19.14;54.31
49729;BME280;66333;49.798;10.968;2023-08-31T06:58:22;97737.53;;;19.08;54.50
49729;BME280;66333;49.798;10.968;2023-08-31T07:00:49;97742.03;;;19.08;54.54
49729;BME280;66333;49.798;10.968;2023-08-31T07:03:15;97743.25;;;19.05;54.61
49729;BME280;66333;49.798;10.968;2023-08-31T07:05:43;97737.94;;;19.05;54.63
49729;BME280;66333;49.798;10.968;2023-08-31T07:08:10;97745.31;;;19.03;54.64
49729;BME280;66333;49.798;10.968;2023-08-31T07:10:37;97745.31;;;19.03;54.59
49729;BME280;66333;49.798;10.968;2023-08-31T07:13:04;97744.50;;;19.03;54.64
49729;BME280;66333;49.798;10.968;2023-08-31T07:15:30;97748.97;;;19.09;54.54
49729;BME280;66333;49.798;10.968;2023-08-31T07:17:57;97747.41;;;19.01;54.83
49729;BME280;66333;49.798;10.968;2023-08-31T07:20:23;97748.78;;;19.04;54.41
49729;BME280;66333;49.798;10.968;2023-08-31T07:22:49;97747.28;;;19.14;54.26
49729;BME280;66333;49.798;10.968;2023-08-31T07:25:17;97749.78;;;19.09;54.41
49729;BME280;66333;49.798;10.968;2023-08-31T07:27:44;97761.44;;;19.08;54.38
49729;BME280;66333;49.798;10.968;2023-08-31T07:30:11;97759.53;;;19.15;54.23
49729;BME280;66333;49.798;10.968;2023-08-31T07:32:38;97769.53;;;19.13;54.21
49729;BME280;66333;49.798;10.968;2023-08-31T07:35:04;97763.63;;;19.11;54.31
49729;BME280;66333;49.798;10.968;2023-08-31T07:37:32;97768.53;;;19.14;54.33
49729;BME280;66333;49.798;10.968;2023-08-31T07:39:58;97767.31;;;19.10;54.48
49729;BME280;66333;49.798;10.968;2023-08-31T07:42:26;97764.06;;;18.90;55.02
49729;BME280;66333;49.798;10.968;2023-08-31T07:44:52;97769.50;;;18.95;54.96
49729;BME280;66333;49.798;10.968;2023-08-31T07:47:18;97772.47;;;19.05;54.62
49729;BME280;66333;49.798;10.968;2023-08-31T07:49:45;97769.16;;;19.10;54.44
49729;BME280;66333;49.798;10.968;2023-08-31T07:52:11;97771.47;;;19.06;54.66
49729;BME280;66333;49.798;10.968;2023-08-31T07:54:38;97769.41;;;19.08;54.58
49729;BME280;66333;49.798;10.968;2023-08-31T07:57:04;97774.81;;;18.95;55.00
49729;BME280;66333;49.798;10.968;2023-08-31T07:59:32;97783.81;;;18.94;54.96
49729;BME280;66333;49.798;10.968;2023-08-31T08:01:58;97789.56;;;18.91;55.10
49729;BME280;66333;49.798;10.968;2023-08-31T08:04:25;97792.38;;;18.96;54.99
49729;BME280;66333;49.798;10.968;2023-08-31T08:06:52;97792.81;;;18.93;55.01
49729;BME280;66333;49.798;10.968;2023-08-31T08:09:19;97794.44;;;18.94;55.06
49729;BME280;66333;49.798;10.968;2023-08-31T08:11:45;97801.59;;;18.94;55.08
49729;BME280;66333;49.798;10.968;2023-08-31T08:14:12;97792.59;;;18.95;55.01
49729;BME280;66333;49.798;10.968;2023-08-31T08:16:39;97796.50;;;18.92;55.26
49729;BME280;66333;49.798;10.968;2023-08-31T08:19:06;97801.38;;;18.95;55.11
49729;BME280;66333;49.798;10.968;2023-08-31T08:21:33;97802.97;;;18.96;54.91
49729;BME280;66333;49.798;10.968;2023-08-31T08:24:00;97799.59;;;18.89;55.19
49729;BME280;66333;49.798;10.968;2023-08-31T08:26:26;97797.25;;;18.99;54.92
49729;BME280;66333;49.798;10.968;2023-08-31T08:28:53;97801.09;;;19.03;54.71
49729;BME280;66333;49.798;10.968;2023-08-31T08:31:19;97796.81;;;19.02;54.84
49729;BME280;66333;49.798;10.968;2023-08-31T08:33:47;97797.25;;;18.99;54.77
49729;BME280;66333;49.798;10.968;2023-08-31T08:36:13;97800.50;;;19.01;54.67
49729;BME280;66333;49.798;10.968;2023-08-31T08:38:41;97808.28;;;18.96;54.76
49729;BME280;66333;49.798;10.968;2023-08-31T08:41:07;97802.97;;;18.96;54.95
49729;BME280;66333;49.798;10.968;2023-08-31T08:43:34;97798.88;;;19.00;54.79
49729;BME280;66333;49.798;10.968;2023-08-31T08:46:04;97803.69;;;19.10;54.44
49729;BME280;66333;49.798;10.968;2023-08-31T08:48:32;97797.63;;;19.03;54.68
49729;BME280;66333;49.798;10.968;2023-08-31T08:51:02;97798.06;;;19.00;54.77
49729;BME280;66333;49.798;10.968;2023-08-31T08:53:28;97804.19;;;19.00;54.63
49729;BME280;66333;49.798;10.968;2023-08-31T08:55:55;97811.56;;;18.98;54.86
49729;BME280;66333;49.798;10.968;2023-08-31T08:58:21;97805.38;;;19.04;54.63
49729;BME280;66333;49.798;10.968;2023-08-31T09:00:48;97812.16;;;19.00;54.79
49729;BME280;66333;49.798;10.968;2023-08-31T09:03:15;97807.13;;;18.92;54.77
49729;BME280;66333;49.798;10.968;2023-08-31T09:05:41;97816.13;;;18.91;55.05
49729;BME280;66333;49.798;10.968;2023-08-31T09:08:10;97817.38;;;18.88;54.86
49729;BME280;66333;49.798;10.968;2023-08-31T09:10:39;97813.25;;;18.93;54.91
49729;BME280;66333;49.798;10.968;2023-08-31T09:13:06;97820.56;;;18.97;54.71
49729;BME280;66333;49.798;10.968;2023-08-31T09:15:44;97830.44;;;18.90;54.98
49729;BME280;66333;49.798;10.968;2023-08-31T09:18:15;97824.09;;;18.91;54.78
49729;BME280;66333;49.798;10.968;2023-08-31T09:20:46;97832.00;;;18.98;54.50
49729;BME280;66333;49.798;10.968;2023-08-31T09:23:14;97828.72;;;18.96;54.63
49729;BME280;66333;49.798;10.968;2023-08-31T09:25:44;97820.84;;;18.89;54.81
49729;BME280;66333;49.798;10.968;2023-08-31T09:28:12;97819.31;;;19.00;54.61
49729;BME280;66333;49.798;10.968;2023-08-31T09:30:39;97818.09;;;18.96;54.51
49729;BME280;66333;49.798;10.968;2023-08-31T09:33:06;97820.75;;;18.96;54.79
49729;BME280;66333;49.798;10.968;2023-08-31T09:35:34;97825.88;;;18.97;54.73
49729;BME280;66333;49.798;10.968;2023-08-31T09:38:07;97822.59;;;18.95;54.60
49729;BME280;66333;49.798;10.968;2023-08-31T09:40:36;97826.28;;;18.94;54.38
49729;BME280;66333;49.798;10.968;2023-08-31T09:43:03;97820.56;;;18.97;54.30
49729;BME280;66333;49.798;10.968;2023-08-31T09:45:30;97827.91;;;18.95;52.26
49729;BME280;66333;49.798;10.968;2023-08-31T09:47:59;97818.06;;;19.02;52.41
49729;BME280;66333;49.798;10.968;2023-08-31T09:50:26;97819.28;;;19.06;52.63
49729;BME280;66333;49.798;10.968;2023-08-31T09:52:55;97819.94;;;18.95;53.12
49729;BME280;66333;49.798;10.968;2023-08-31T09:55:25;97824.13;;;19.09;53.07
49729;BME280;66333;49.798;10.968;2023-08-31T09:57:57;97819.38;;;18.93;53.53
49729;BME280;66333;49.798;10.968;2023-08-31T10:00:25;97815.81;;;19.06;53.37
49729;BME280;66333;49.798;10.968;2023-08-31T10:02:53;97832.28;;;19.14;53.10
49729;BME280;66333;49.798;10.968;2023-08-31T10:05:21;97833.50;;;19.12;53.19
49729;BME280;66333;49.798;10.968;2023-08-31T10:07:48;97832.31;;;19.08;53.37
49729;BME280;66333;49.798;10.968;2023-08-31T10:10:16;97842.78;;;19.03;53.54
49729;BME280;66333;49.798;10.968;2023-08-31T10:12:44;97840.94;;;19.03;53.81
49729;BME280;66333;49.798;10.968;2023-08-31T10:15:14;97832.97;;;19.03;53.51
49729;BME280;66333;49.798;10.968;2023-08-31T10:17:41;97843.44;;;18.98;53.52
49729;BME280;66333;49.798;10.968;2023-08-31T10:20:11;97839.34;;;18.96;53.83
49729;BME280;66333;49.798;10.968;2023-08-31T10:22:38;97842.53;;;19.04;53.51
49729;BME280;66333;49.798;10.968;2023-08-31T10:25:05;97837.19;;;19.11;53.43
49729;BME280;66333;49.798;10.968;2023-08-31T10:27:36;97838.03;;;19.05;53.71
49729;BME280;66333;49.798;10.968;2023-08-31T10:30:26;97840.25;;;19.14;53.58
49729;BME280;66333;49.798;10.968;2023-08-31T10:35:48;97843.00;;;19.26;52.68
49729;BME280;66333;49.798;10.968;2023-08-31T10:38:15;97835.94;;;19.13;53.18
49729;BME280;66333;49.798;10.968;2023-08-31T10:40:42;97839.25;;;19.09;53.22
49729;BME280;66333;49.798;10.968;2023-08-31T10:43:25;97835.53;;;19.16;53.39
49729;BME280;66333;49.798;10.968;2023-08-31T10:45:53;97837.78;;;19.13;53.37
49729;BME280;66333;49.798;10.968;2023-08-31T10:48:19;97845.75;;;19.13;53.33
49729;BME280;66333;49.798;10.968;2023-08-31T10:50:46;97849.84;;;19.15;53.23
49729;BME280;66333;49.798;10.968;2023-08-31T10:53:13;97848.34;;;19.20;53.09
49729;BME280;66333;49.798;10.968;2023-08-31T10:55:50;97844.06;;;19.19;53.27
49729;BME280;66333;49.798;10.968;2023-08-31T10:58:16;97847.81;;;19.36;52.72
49729;BME280;66333;49.798;10.968;2023-08-31T11:00:46;97844.84;;;19.26;53.09
49729;BME280;66333;49.798;10.968;2023-08-31T11:03:14;97847.75;;;19.17;53.39
49729;BME280;66333;49.798;10.968;2023-08-31T11:05:50;97847.75;;;19.17;53.50
49729;BME280;66333;49.798;10.968;2023-08-31T11:08:21;97847.50;;;19.26;53.15
49729;BME280;66333;49.798;10.968;2023-08-31T11:10:47;97845.75;;;19.13;53.57
49729;BME280;66333;49.798;10.968;2023-08-31T11:13:16;97847.31;;;19.21;53.36
49729;BME280;66333;49.798;10.968;2023-08-31T11:15:45;97842.00;;;19.21;53.39
49729;BME280;66333;49.798;10.968;2023-08-31T11:18:12;97841.59;;;19.24;53.41
49729;BME280;66333;49.798;10.968;2023-08-31T11:20:42;97841.97;;;19.27;53.19
49729;BME280;66333;49.798;10.968;2023-08-31T11:23:08;97852.53;;;19.34;53.04
49729;BME280;66333;49.798;10.968;2023-08-31T11:25:35;97845.25;;;19.23;53.32
49729;BME280;66333;49.798;10.968;2023-08-31T11:28:03;97849.38;;;19.19;53.67
49729;BME280;66333;49.798;10.968;2023-08-31T11:30:31;97849.75;;;19.22;53.59
49729;BME280;66333;49.798;10.968;2023-08-31T11:33:02;97859.25;;;19.11;53.82
49729;BME280;66333;49.798;10.968;2023-08-31T11:35:32;97857.59;;;19.17;53.44
49729;BME280;66333;49.798;10.968;2023-08-31T11:38:01;97848.94;;;19.22;53.71
49729;BME280;66333;49.798;10.968;2023-08-31T11:40:28;97858.53;;;19.23;53.47
49729;BME280;66333;49.798;10.968;2023-08-31T11:42:55;97861.63;;;19.20;53.71
49729;BME280;66333;49.798;10.968;2023-08-31T11:45:22;97856.09;;;19.21;53.53
49729;BME280;66333;49.798;10.968;2023-08-31T11:47:51;97862.84;;;19.24;53.61
49729;BME280;66333;49.798;10.968;2023-08-31T11:50:18;97858.97;;;19.20;53.82
49729;BME280;66333;49.798;10.968;2023-08-31T11:52:45;97864.06;;;19.21;53.80
49729;BME280;66333;49.798;10.968;2023-08-31T11:55:14;97854.34;;;19.15;53.92
49729;BME280;66333;49.798;10.968;2023-08-31T11:57:48;97859.25;;;19.11;53.84
49729;BME280;66333;49.798;10.968;2023-08-31T12:00:16;97861.91;;;19.11;53.69
49729;BME280;66333;49.798;10.968;2023-08-31T12:02:43;97859.66;;;19.15;53.87
49729;BME280;66333;49.798;10.968;2023-08-31T12:05:11;97853.53;;;19.14;53.94
49729;BME280;66333;49.798;10.968;2023-08-31T12:07:39;97856.31;;;19.20;53.80
49729;BME280;66333;49.798;10.968;2023-08-31T12:10:07;97861.19;;;19.23;53.50
49729;BME280;66333;49.798;10.968;2023-08-31T12:12:35;97861.94;;;19.30;53.48
49729;BME280;66333;49.798;10.968;2023-08-31T12:15:03;97860.81;;;19.19;53.77
49729;BME280;66333;49.798;10.968;2023-08-31T12:17:29;97861.19;;;19.23;53.78
49729;BME280;66333;49.798;10.968;2023-08-31T12:20:02;97858.25;;;19.31;53.56
49729;BME280;66333;49.798;10.968;2023-08-31T12:22:30;97860.34;;;19.29;53.67
49729;BME280;66333;49.798;10.968;2023-08-31T12:24:56;97858.72;;;19.28;53.61
49729;BME280;66333;49.798;10.968;2023-08-31T12:27:23;97869.78;;;19.25;53.72
49729;BME280;66333;49.798;10.968;2023-08-31T12:29:51;97862.84;;;19.24;53.77
49729;BME280;66333;49.798;10.968;2023-08-31T12:32:17;97855.03;;;19.29;53.51
49729;BME280;66333;49.798;10.968;2023-08-31T12:34:44;97862.03;;;19.23;53.66
49729;BME280;66333;49.798;10.968;2023-08-31T12:37:10;97858.34;;;19.24;53.74
49729;BME280;66333;49.798;10.968;2023-08-31T12:39:37;97862.03;;;19.23;53.75
49729;BME280;66333;49.798;10.968;2023-08-31T12:42:04;97856.63;;;19.30;53.73
49729;BME280;66333;49.798;10.968;2023-08-31T12:44:30;97859.41;;;19.41;53.47
49729;BME280;66333;49.798;10.968;2023-08-31T12:46:58;97864.56;;;19.36;53.51
49729;BME280;66333;49.798;10.968;2023-08-31T12:49:25;97874.38;;;19.36;53.60
49729;BME280;66333;49.798;10.968;2023-08-31T12:51:51;97867.75;;;19.45;53.32
49729;BME280;66333;49.798;10.968;2023-08-31T12:54:18;97872.03;;;19.46;53.33